Terminal Aerodrome Forecast
Issued by NWS Newport/Morehead City, NC

Home | Current Version | Previous Version | Graphics & Text | Print | Product List | Glossary On
Versions: 1 2 3 4 5 6 7 8 9 10 11 12 13 14 15 16
000
FTUS42 KMHX 312322
TAFEWN
TAF
KEWN 312322Z 0100/0124 18007KT P6SM SKC
     FM010600 00000KT 4SM BR FEW007
     FM011200 22005KT P6SM SCT020
     FM011800 18010KT P6SM BKN035=

USA.gov is the U.S. government's official web portal to all federal, state and local government web resources and services.